aviador You're here:

RJOO Decoded Metar

OSAKA in JAPAN
Report Time2017-10-17 05:00:00
UTC Time2017-10-17 05:54:13
Flight Rules vfr VFR
WindVRB at 01 kt
Visibility9999 m
Phenomena:N/A
Clouds:Few 008 Hf
Scattered 080 Hf
Broken 150 Hf
Expected CloudBase > 1,600 ft AGL from Temp-Dew spread
Ceiling15,000 ft
Temp17°C (ISA +2)
Dew Point13°C (77% RH)
QNH1020 hPa
Density Alt259 ft
Elevation49 ft
Report Wrong Elevation
Raw Report
METAR RJOO 170500Z VRB01KT 9999 FEW008 SCT080 BKN150 17/13 Q1020 RMK
1ST008 4AC080 6AC150 A3014=

Extra information for RJOO:More info

Metar Taf Metar & Taf Last 4 Metars F.Rules Stats Wind Profile Meteogram Temp Stats Airport Information Weather charts Add Link Nearby VenuesMetar ALERT Operation Metar Decoded Social comments